CL41 weather

Oakland Convention Center Heliport
Oakland, California, United States

Public forecast

Using degrees Fahrenheit for public forecast. Weather courtesy of forecast.io.

METAR (pilot weather report)

Closest report is Metropolitan Oakland International Airport, 5.5 nm (10.2 km) SSE. Retrieved 2019/06/18 17:53 UTC (9 minutes ago):

KOAK 181753Z 31006KT 10SM CLR 21/13 A2995 RMK AO2 SLP142 T02060133 10206 20139 50003

TAF (pilot weather forecast)

Closest forecast is Metropolitan Oakland International Airport, 5.5 nm (10.2 km) SSE. Retrieved 2019/06/18 18:42 UTC (0 seconds ago):

TAF KOAK 181739Z 1818/1924 28008KT P6SM FEW012 FM182100 31013KT P6SM SKC FM190400 31006KT P6SM FEW010 FM190900 28006KT P6SM BKN007 FM191700 31012KT P6SM SKC